createdAt,value
2023-04-19T00:03:06.375Z,12.2
2023-04-19T00:08:50.395Z,11.6
2023-04-19T00:14:34.547Z,11.6
2023-04-19T00:20:18.513Z,11.4
2023-04-19T00:26:02.626Z,11.8
2023-04-19T00:31:46.624Z,12.2
2023-04-19T00:37:30.678Z,11.8
2023-04-19T00:43:20.086Z,13.1
2023-04-19T00:49:04.092Z,12.8
2023-04-19T00:54:48.582Z,13.5
2023-04-19T01:00:32.555Z,13.2
2023-04-19T01:06:16.810Z,11.5
2023-04-19T01:12:00.847Z,13.2
2023-04-19T01:17:45.260Z,12.8
2023-04-19T01:23:29.167Z,13.5
2023-04-19T01:29:13.234Z,12.2
2023-04-19T01:34:57.265Z,12
2023-04-19T01:40:42.118Z,12.4
2023-04-19T01:46:26.283Z,13.5
2023-04-19T01:52:10.249Z,12.9
2023-04-19T01:57:56.950Z,12
2023-04-19T02:03:41.858Z,13.4
2023-04-19T02:09:26.119Z,11.9
2023-04-19T02:15:10.785Z,11.6
2023-04-19T02:20:55.101Z,13.2
2023-04-19T02:26:39.057Z,13.3
2023-04-19T02:32:23.296Z,11.8
2023-04-19T02:38:07.683Z,12.1
2023-04-19T02:43:51.789Z,13.2
2023-04-19T02:49:35.832Z,13.8
2023-04-19T02:55:20.592Z,12.9
2023-04-19T03:01:04.680Z,12.6
2023-04-19T03:06:49.595Z,13
2023-04-19T03:12:33.930Z,12.8
2023-04-19T03:18:17.970Z,13.2
2023-04-19T03:24:02.381Z,12.4
2023-04-19T03:29:49.036Z,11.7
2023-04-19T03:35:33.093Z,13.7
2023-04-19T03:41:28.698Z,12.5
2023-04-19T03:47:12.694Z,12.2
2023-04-19T03:52:56.694Z,12.4
2023-04-19T03:58:43.741Z,11.2
2023-04-19T04:04:28.512Z,12.2
2023-04-19T04:10:14.390Z,11.5
2023-04-19T04:15:58.442Z,11
2023-04-19T04:21:42.524Z,12.8
2023-04-19T04:27:26.589Z,11.1
2023-04-19T04:33:10.781Z,11
2023-04-19T04:38:54.895Z,11
2023-04-19T04:44:39.163Z,11.1
2023-04-19T04:50:24.018Z,12.1
2023-04-19T04:56:08.161Z,11.4
2023-04-19T05:01:52.365Z,11.3
2023-04-19T05:07:36.377Z,11.3
2023-04-19T05:13:21.384Z,11
2023-04-19T05:19:05.734Z,12.6
2023-04-19T05:24:49.824Z,11.3
2023-04-19T05:30:33.784Z,10.7
2023-04-19T05:36:17.824Z,11.6
2023-04-19T05:42:01.949Z,11.3
2023-04-19T05:47:47.085Z,10.9
2023-04-19T05:53:32.067Z,11.2
2023-04-19T05:59:16.145Z,10.7
2023-04-19T06:05:10.140Z,10.8
2023-04-19T06:11:20.075Z,13.3
2023-04-19T06:16:58.614Z,11.7
2023-04-19T06:22:44.714Z,10.5
2023-04-19T06:28:28.692Z,11.4
2023-04-19T06:34:14.010Z,11
2023-04-19T06:39:57.761Z,10.9
2023-04-19T06:45:42.007Z,12.7
2023-04-19T06:51:26.107Z,11.4
2023-04-19T06:57:10.402Z,11.6
2023-04-19T07:02:55.633Z,12.1
2023-04-19T07:08:51.331Z,10.6
2023-04-19T07:14:36.621Z,12
2023-04-19T07:20:21.014Z,11.6
2023-04-19T07:26:05.275Z,11.2
2023-04-19T07:31:49.410Z,10
2023-04-19T07:37:33.649Z,12.1
2023-04-19T07:43:17.679Z,11.3
2023-04-19T07:49:01.681Z,9.6
2023-04-19T07:54:46.825Z,9.1
2023-04-19T08:00:31.138Z,9.5
2023-04-19T08:06:15.400Z,8.8
2023-04-19T08:11:59.554Z,7.9
2023-04-19T08:17:46.998Z,8.3
2023-04-19T08:23:48.435Z,8.3
2023-04-19T08:29:35.173Z,11
2023-04-19T08:35:19.185Z,8.4
2023-04-19T08:41:04.214Z,9.1
2023-04-19T08:46:48.773Z,7.8
2023-04-19T08:52:37.255Z,7.8
2023-04-19T09:04:39.046Z,6.8
2023-04-19T09:10:24.293Z,8.4
2023-04-19T09:16:08.935Z,7.3
2023-04-19T09:21:53.017Z,8.5
2023-04-19T09:27:37.830Z,6.8
2023-04-19T09:33:27.581Z,8.1
2023-04-19T09:39:11.940Z,7.3
2023-04-19T09:51:15.728Z,7
2023-04-19T09:57:03.766Z,7
2023-04-19T10:02:52.302Z,5.8
2023-04-19T10:08:36.626Z,6.5
2023-04-19T10:14:23.079Z,7.1
2023-04-19T10:20:09.988Z,5.2
2023-04-19T10:25:59.314Z,6.9
2023-04-19T10:31:44.093Z,4.8
2023-04-19T10:37:29.378Z,5.2
2023-04-19T10:43:22.249Z,7.3
2023-04-19T10:49:07.113Z,8.7
2023-04-19T10:54:55.961Z,8.8
2023-04-19T11:00:40.093Z,8.4
2023-04-19T11:06:24.261Z,7
2023-04-19T11:12:09.545Z,7.4
2023-04-19T11:18:12.762Z,7
2023-04-19T11:24:02.586Z,6.9
2023-04-19T11:29:46.654Z,8.1
2023-04-19T11:35:31.487Z,8.3
2023-04-19T11:41:15.609Z,6.2
2023-04-19T11:47:07.931Z,7.1
2023-04-19T11:52:55.842Z,8
2023-04-19T11:58:40.860Z,6.1
2023-04-19T12:04:25.865Z,6.3
2023-04-19T12:10:15.948Z,8.1
2023-04-19T12:16:00.284Z,5.7
2023-04-19T12:21:44.815Z,5.9
2023-04-19T12:27:28.895Z,5.2
2023-04-19T12:33:13.708Z,6.1
2023-04-19T12:38:58.804Z,7.1
2023-04-19T12:44:42.770Z,6
2023-04-19T12:50:26.980Z,5.6
2023-04-19T12:56:11.041Z,4.8
2023-04-19T13:01:55.720Z,6.2
2023-04-19T13:07:40.070Z,6.3
2023-04-19T13:13:24.319Z,5.8
2023-04-19T13:19:08.443Z,5.8
2023-04-19T13:24:52.355Z,6.2
2023-04-19T13:30:36.751Z,6.7
2023-04-19T13:36:20.857Z,6.8
2023-04-19T13:42:04.991Z,5
2023-04-19T13:47:49.400Z,5.7
2023-04-19T13:53:33.245Z,6.2
2023-04-19T13:59:17.306Z,9.2
2023-04-19T14:05:01.307Z,5.8
2023-04-19T14:10:45.304Z,4.9
2023-04-19T14:16:30.435Z,5.4
2023-04-19T14:22:14.417Z,4.6
2023-04-19T14:27:58.451Z,7.2
2023-04-19T14:33:42.604Z,7
2023-04-19T14:39:26.452Z,4.8
2023-04-19T14:45:11.346Z,6.4
2023-04-19T14:50:55.529Z,4.5
2023-04-19T14:56:40.135Z,3.8
2023-04-19T15:02:24.690Z,5.4
2023-04-19T15:08:29.961Z,5.7
2023-04-19T15:14:08.987Z,6.8
2023-04-19T15:19:53.006Z,5.6
2023-04-19T15:25:37.527Z,5.9
2023-04-19T15:31:21.962Z,5.1
2023-04-19T15:37:06.066Z,7.7
2023-04-19T15:42:50.235Z,5.1
2023-04-19T15:48:34.388Z,4.7
2023-04-19T15:54:18.248Z,4.8
2023-04-19T16:00:02.522Z,3.8
2023-04-19T16:05:46.506Z,2.8
2023-04-19T16:11:30.630Z,2.7
2023-04-19T16:17:14.573Z,3.8
2023-04-19T16:22:58.492Z,2.2
2023-04-19T16:28:42.541Z,3
2023-04-19T16:34:26.707Z,3.3
2023-04-19T16:40:13.162Z,3.6
2023-04-19T16:45:57.704Z,4.9
2023-04-19T16:51:41.927Z,2.4
2023-04-19T16:57:26.449Z,2.2
2023-04-19T17:03:11.058Z,4.4
2023-04-19T17:08:55.302Z,2.3
2023-04-19T17:14:39.436Z,1.8
2023-04-19T17:20:24.694Z,1.4
2023-04-19T17:26:08.797Z,2.3
2023-04-19T17:31:53.436Z,3
2023-04-19T17:37:37.715Z,2.4
2023-04-19T17:43:21.708Z,2.3
2023-04-19T17:49:05.960Z,2.2
2023-04-19T17:54:51.396Z,2.4
2023-04-19T18:00:35.817Z,3.6
2023-04-19T18:06:20.011Z,1.7
2023-04-19T18:12:04.184Z,1.7
2023-04-19T18:17:48.394Z,3
2023-04-19T18:23:32.351Z,2.9
2023-04-19T18:29:16.944Z,3
2023-04-19T18:35:00.953Z,1.7
2023-04-19T18:40:45.063Z,2.5
2023-04-19T18:46:29.454Z,3.8
2023-04-19T18:52:14.467Z,2.2
2023-04-19T18:58:01.143Z,6.5
2023-04-19T19:10:00.843Z,6.9
2023-04-19T19:15:46.187Z,5.7
2023-04-19T19:21:30.338Z,7.4
2023-04-19T19:27:14.430Z,6.7
2023-04-19T19:32:58.820Z,7.5
2023-04-19T19:38:43.092Z,3.4
2023-04-19T19:44:26.876Z,6.1
2023-04-19T19:56:24.380Z,3.6
2023-04-19T20:02:09.500Z,3.6
2023-04-19T20:08:07.785Z,3.8
2023-04-19T20:13:52.028Z,4.6
2023-04-19T20:19:36.362Z,3.7
2023-04-19T20:25:20.532Z,4.3
2023-04-19T20:31:04.832Z,3.2
2023-04-19T20:36:49.496Z,3.8
2023-04-19T20:42:33.577Z,3
2023-04-19T20:48:17.668Z,4
2023-04-19T20:54:01.487Z,4.4
2023-04-19T20:59:45.431Z,3.6
2023-04-19T21:05:29.524Z,2.7
2023-04-19T21:11:13.596Z,5
2023-04-19T21:16:57.759Z,3.5
2023-04-19T21:22:42.618Z,4.1
2023-04-19T21:28:26.657Z,2.7
2023-04-19T21:34:10.842Z,2.9
2023-04-19T21:39:55.079Z,2.5
2023-04-19T21:45:39.138Z,3.4
2023-04-19T21:51:23.236Z,3.2
2023-04-19T21:57:07.506Z,3.5
2023-04-19T22:02:51.919Z,3.3
2023-04-19T22:08:36.410Z,2.6
2023-04-19T22:14:20.278Z,3.7
2023-04-19T22:20:04.319Z,4.3
2023-04-19T22:25:48.485Z,3
2023-04-19T22:31:32.705Z,3.4
2023-04-19T22:37:16.677Z,3.2
2023-04-19T22:43:00.818Z,2.7
2023-04-19T22:48:44.988Z,3.3
2023-04-19T22:54:29.081Z,3.2
2023-04-19T23:00:14.463Z,2
2023-04-19T23:05:59.390Z,2.8
2023-04-19T23:11:43.839Z,4
2023-04-19T23:17:28.086Z,2.8
2023-04-19T23:23:12.243Z,2.7
2023-04-19T23:28:56.287Z,3.9
2023-04-19T23:34:40.383Z,2.2
2023-04-19T23:40:26.357Z,3.1
2023-04-19T23:46:10.664Z,2.7
2023-04-19T23:51:54.887Z,3.8
2023-04-19T23:57:40.670Z,2.3
